Time;durP1;ratioP1;P1;durP2;ratioP2;P2;SDS_P1;SDS_P2;PMS_P1;PMS_P2;Temp;Humidity;BMP_temperature;BMP_pressure;BME280_temperature;BME280_humidity;BME280_pressure;Samples;Min_cycle;Max_cycle;Signal;HPM_P1;HPM_P2
2023/04/04 00:00:45;;;;;;;;;;;;;;;;;;5059422;28;19916;-43
2023/04/04 00:03:11;;;;;;;;;;;;;;;;;;5060561;28;19968;-44
2023/04/04 00:05:38;;;;;;;;;;;;;;;;;;5060310;28;20374;-43
2023/04/04 00:08:04;;;;;;;;;;;;;;;;;;5061835;28;19939;-42
2023/04/04 00:10:31;;;;;;;;;;;;;;;;;;5062740;28;19916;-43
2023/04/04 00:12:57;;;;;;;;;;;;;;;;;;5068210;28;19920;-42
2023/04/04 00:15:24;;;;;;;;;;;;;;;;;;5068275;28;19916;-43
2023/04/04 00:17:50;;;;;;;;;;;;;;;;;;5067896;28;20397;-42
2023/04/04 00:20:17;;;;;;;;;;;;;;;;;;5062772;28;19912;-43
2023/04/04 00:22:43;;;;;;;;;;;;;;;;;;5063455;28;19932;-43
2023/04/04 00:25:14;;;;;;;;;;;;;;;;;;5058590;28;22375;-45
2023/04/04 00:27:40;;;;;;;;;;;;;;;;;;5062231;28;20023;-44
2023/04/04 00:30:07;;;;;;;;;;;;;;;;;;5063562;28;19913;-44
2023/04/04 00:32:33;;;;;;;;;;;;;;;;;;5061175;28;20389;-43
2023/04/04 00:34:59;;;;;;;;;;;;;;;;;;5057949;28;19978;-42
2023/04/04 00:37:26;;;;;;;;;;;;;;;;;;5057499;28;19916;-43
2023/04/04 00:39:53;;;;;;;;;;;;;;;;;;5060852;28;20108;-42
2023/04/04 00:42:19;;;;;;;;;;;;;;;;;;5055500;28;20302;-44
2023/04/04 00:44:45;;;;;;;;;;;;;;;;;;5063209;28;19920;-43
2023/04/04 00:47:12;;;;;;;;;;;;;;;;;;5070609;28;19924;-41
2023/04/04 00:49:38;;;;;;;;;;;;;;;;;;5070705;28;20290;-41
2023/04/04 00:52:06;;;;;;;;;;;;;;;;;;5070242;28;19964;-41
2023/04/04 00:54:32;;;;;;;;;;;;;;;;;;5069432;28;19923;-40
2023/04/04 00:56:59;;;;;;;;;;;;;;;;;;5070639;28;20328;-41
2023/04/04 00:59:26;;;;;;;;;;;;;;;;;;5085610;28;19916;-40
2023/04/04 01:01:52;;;;;;;;;;;;;;;;;;5070650;28;20715;-41
2023/04/04 01:04:19;;;;;;;;;;;;;;;;;;5070851;28;19916;-41
2023/04/04 01:06:45;;;;;;;;;;;;;;;;;;5071188;28;20265;-41
2023/04/04 01:09:12;;;;;;;;;;;;;;;;;;5071206;28;19997;-41
2023/04/04 01:11:38;;;;;;;;;;;;;;;;;;5071176;28;20456;-40
2023/04/04 01:14:05;;;;;;;;;;;;;;;;;;5071080;28;19919;-41
2023/04/04 01:16:31;;;;;;;;;;;;;;;;;;5070986;28;19913;-40
2023/04/04 01:18:58;;;;;;;;;;;;;;;;;;5071088;28;19916;-41
2023/04/04 01:21:24;;;;;;;;;;;;;;;;;;5070922;28;20014;-40
2023/04/04 01:23:51;;;;;;;;;;;;;;;;;;5070989;28;19924;-41
2023/04/04 01:26:17;;;;;;;;;;;;;;;;;;5073463;28;20392;-40
2023/04/04 01:28:44;;;;;;;;;;;;;;;;;;5074050;28;19952;-41
2023/04/04 01:31:10;;;;;;;;;;;;;;;;;;5073960;28;19923;-40
2023/04/04 01:33:37;;;;;;;;;;;;;;;;;;5074104;28;20271;-40
2023/04/04 01:36:03;;;;;;;;;;;;;;;;;;5072970;28;20393;-40
2023/04/04 01:38:30;;;;;;;;;;;;;;;;;;5073951;28;19912;-40
2023/04/04 01:40:56;;;;;;;;;;;;;;;;;;5074514;28;19916;-40
2023/04/04 01:43:22;;;;;;;;;;;;;;;;;;5074406;28;19920;-41
2023/04/04 01:45:49;;;;;;;;;;;;;;;;;;5069095;28;19912;-42
2023/04/04 01:48:16;;;;;;;;;;;;;;;;;;5056568;28;19923;-41
2023/04/04 01:50:42;;;;;;;;;;;;;;;;;;5064490;28;19913;-42
2023/04/04 01:53:08;;;;;;;;;;;;;;;;;;5056737;28;20030;-41
2023/04/04 01:55:35;;;;;;;;;;;;;;;;;;5054606;28;19920;-41
2023/04/04 01:58:02;;;;;;;;;;;;;;;;;;5054558;28;19921;-41
2023/04/04 02:00:28;;;;;;;;;;;;;;;;;;5059477;28;19920;-41
2023/04/04 02:02:55;;;;;;;;;;;;;;;;;;5057061;28;19943;-41
2023/04/04 02:05:21;;;;;;;;;;;;;;;;;;5055405;28;19917;-41
2023/04/04 02:07:50;;;;;;;;;;;;;;;;;;5062005;28;19971;-41
2023/04/04 02:10:17;;;;;;;;;;;;;;;;;;5061934;28;19962;-41
2023/04/04 02:12:44;;;;;;;;;;;;;;;;;;5062101;28;19923;-41
2023/04/04 02:15:10;;;;;;;;;;;;;;;;;;5064201;28;20020;-41
2023/04/04 02:17:38;;;;;;;;;;;;;;;;;;5064264;28;19916;-41
2023/04/04 02:20:05;;;;;;;;;;;;;;;;;;5063989;28;19927;-41
2023/04/04 02:22:31;;;;;;;;;;;;;;;;;;5070774;28;19925;-41
2023/04/04 02:24:59;;;;;;;;;;;;;;;;;;5073253;28;20121;-41
2023/04/04 02:27:25;;;;;;;;;;;;;;;;;;5073933;28;20006;-41
2023/04/04 02:29:52;;;;;;;;;;;;;;;;;;5074001;28;20007;-41
2023/04/04 02:32:20;;;;;;;;;;;;;;;;;;5073957;28;19912;-41
2023/04/04 02:34:46;;;;;;;;;;;;;;;;;;5074233;28;20255;-41
2023/04/04 02:37:13;;;;;;;;;;;;;;;;;;5073649;28;20007;-41
2023/04/04 02:39:39;;;;;;;;;;;;;;;;;;5073897;28;19916;-41
2023/04/04 02:42:06;;;;;;;;;;;;;;;;;;5073724;28;19967;-41
2023/04/04 02:44:32;;;;;;;;;;;;;;;;;;5073792;28;20406;-41
2023/04/04 02:46:59;;;;;;;;;;;;;;;;;;5073770;28;20443;-41
2023/04/04 02:49:25;;;;;;;;;;;;;;;;;;5073690;28;19970;-41
2023/04/04 02:51:53;;;;;;;;;;;;;;;;;;5073567;28;19912;-41
2023/04/04 02:54:20;;;;;;;;;;;;;;;;;;5073887;28;19912;-40
2023/04/04 02:56:46;;;;;;;;;;;;;;;;;;5073495;28;19916;-41
2023/04/04 02:59:13;;;;;;;;;;;;;;;;;;5073386;28;20332;-41
2023/04/04 03:01:41;;;;;;;;;;;;;;;;;;5073331;28;20281;-41
2023/04/04 03:04:07;;;;;;;;;;;;;;;;;;5073262;28;20332;-41
2023/04/04 03:06:34;;;;;;;;;;;;;;;;;;5073230;28;19925;-41
2023/04/04 03:09:01;;;;;;;;;;;;;;;;;;5073337;28;19965;-41
2023/04/04 03:11:27;;;;;;;;;;;;;;;;;;5073104;28;19919;-41
2023/04/04 03:13:54;;;;;;;;;;;;;;;;;;5073088;28;20267;-41
2023/04/04 03:16:21;;;;;;;;;;;;;;;;;;5073111;28;19912;-41
2023/04/04 03:18:47;;;;;;;;;;;;;;;;;;5073084;28;19913;-41
2023/04/04 03:21:14;;;;;;;;;;;;;;;;;;5072839;28;19924;-41
2023/04/04 03:23:41;;;;;;;;;;;;;;;;;;5072959;28;19920;-41
2023/04/04 03:26:08;;;;;;;;;;;;;;;;;;5072827;28;20290;-41
2023/04/04 03:28:35;;;;;;;;;;;;;;;;;;5072960;28;19923;-41
2023/04/04 03:31:01;;;;;;;;;;;;;;;;;;5072839;28;19912;-41
2023/04/04 03:33:28;;;;;;;;;;;;;;;;;;5072817;28;19916;-41
2023/04/04 03:35:54;;;;;;;;;;;;;;;;;;5072739;28;19920;-41
2023/04/04 03:38:21;;;;;;;;;;;;;;;;;;5072730;28;19916;-41
2023/04/04 03:40:47;;;;;;;;;;;;;;;;;;5072591;28;19919;-41
2023/04/04 03:43:14;;;;;;;;;;;;;;;;;;5072546;28;19928;-40
2023/04/04 03:45:40;;;;;;;;;;;;;;;;;;5072490;28;19912;-41
2023/04/04 03:48:07;;;;;;;;;;;;;;;;;;5072025;28;19966;-41
2023/04/04 03:50:33;;;;;;;;;;;;;;;;;;5072404;28;19916;-41
2023/04/04 03:52:59;;;;;;;;;;;;;;;;;;5072427;28;19921;-41
2023/04/04 03:55:26;;;;;;;;;;;;;;;;;;5072563;28;19912;-41
2023/04/04 03:57:52;;;;;;;;;;;;;;;;;;5072424;28;19913;-41
2023/04/04 04:00:19;;;;;;;;;;;;;;;;;;5072403;28;19962;-40
2023/04/04 04:02:45;;;;;;;;;;;;;;;;;;5072234;28;19921;-41
2023/04/04 04:05:12;;;;;;;;;;;;;;;;;;5072319;28;19916;-41
2023/04/04 04:07:38;;;;;;;;;;;;;;;;;;5072268;28;20354;-43
2023/04/04 04:10:05;;;;;;;;;;;;;;;;;;5072198;28;20301;-41
2023/04/04 04:12:31;;;;;;;;;;;;;;;;;;5072145;28;20374;-40
2023/04/04 04:14:58;;;;;;;;;;;;;;;;;;5072166;28;19913;-41
2023/04/04 04:17:24;;;;;;;;;;;;;;;;;;5072154;28;19920;-41
2023/04/04 04:19:50;;;;;;;;;;;;;;;;;;5072182;28;19924;-42
2023/04/04 04:22:17;;;;;;;;;;;;;;;;;;5071828;28;19931;-41
2023/04/04 04:24:43;;;;;;;;;;;;;;;;;;5072141;28;19916;-41
2023/04/04 04:27:09;;;;;;;;;;;;;;;;;;5072161;28;19919;-41
2023/04/04 04:29:36;;;;;;;;;;;;;;;;;;5072058;28;20007;-41
2023/04/04 04:32:02;;;;;;;;;;;;;;;;;;5071924;28;19913;-41
2023/04/04 04:34:29;;;;;;;;;;;;;;;;;;5072267;28;20025;-41
2023/04/04 04:36:55;;;;;;;;;;;;;;;;;;5072094;28;19913;-41
2023/04/04 04:39:21;;;;;;;;;;;;;;;;;;5072033;28;19917;-41
2023/04/04 04:41:48;;;;;;;;;;;;;;;;;;5071732;28;19944;-42
2023/04/04 04:44:14;;;;;;;;;;;;;;;;;;5071841;28;19916;-41
2023/04/04 04:46:41;;;;;;;;;;;;;;;;;;5071999;28;19920;-41
2023/04/04 04:49:07;;;;;;;;;;;;;;;;;;5071915;28;19913;-41
2023/04/04 04:51:34;;;;;;;;;;;;;;;;;;5071791;28;19920;-41
2023/04/04 04:54:00;;;;;;;;;;;;;;;;;;5071762;28;19958;-41
2023/04/04 04:56:26;;;;;;;;;;;;;;;;;;5071895;28;19916;-41
2023/04/04 04:58:53;;;;;;;;;;;;;;;;;;5072263;28;19912;-41
2023/04/04 05:01:19;;;;;;;;;;;;;;;;;;5075669;28;19916;-41
2023/04/04 05:03:45;;;;;;;;;;;;;;;;;;5075636;28;20020;-41
2023/04/04 05:06:12;;;;;;;;;;;;;;;;;;5075517;28;19920;-41
2023/04/04 05:08:38;;;;;;;;;;;;;;;;;;5074321;28;19916;-41
2023/04/04 05:11:05;;;;;;;;;;;;;;;;;;5075467;28;20293;-41
2023/04/04 05:13:31;;;;;;;;;;;;;;;;;;5075476;28;19912;-41
2023/04/04 05:15:58;;;;;;;;;;;;;;;;;;5075539;28;19919;-41
2023/04/04 05:18:25;;;;;;;;;;;;;;;;;;5075398;28;19999;-41
2023/04/04 05:20:51;;;;;;;;;;;;;;;;;;5075108;28;19925;-42
2023/04/04 05:23:18;;;;;;;;;;;;;;;;;;5075149;28;20016;-41
2023/04/04 05:25:44;;;;;;;;;;;;;;;;;;5075271;28;20378;-41
2023/04/04 05:28:11;;;;;;;;;;;;;;;;;;5075266;28;19916;-41
2023/04/04 05:30:37;;;;;;;;;;;;;;;;;;5075108;28;20003;-41
2023/04/04 05:33:04;;;;;;;;;;;;;;;;;;5075076;28;20078;-41
2023/04/04 05:35:30;;;;;;;;;;;;;;;;;;5075101;28;19916;-41
2023/04/04 05:37:57;;;;;;;;;;;;;;;;;;5075082;28;20004;-41
2023/04/04 05:40:23;;;;;;;;;;;;;;;;;;5074899;28;19923;-41
2023/04/04 05:42:51;;;;;;;;;;;;;;;;;;5074916;28;19920;-41
2023/04/04 05:45:17;;;;;;;;;;;;;;;;;;5075122;28;20378;-41
2023/04/04 05:47:43;;;;;;;;;;;;;;;;;;5074906;28;19923;-41
2023/04/04 05:50:10;;;;;;;;;;;;;;;;;;5074922;28;19959;-41
2023/04/04 05:52:36;;;;;;;;;;;;;;;;;;5074728;28;20386;-41
2023/04/04 05:55:03;;;;;;;;;;;;;;;;;;5074702;28;19916;-41
2023/04/04 05:57:29;;;;;;;;;;;;;;;;;;5074606;28;20374;-41
2023/04/04 05:59:55;;;;;;;;;;;;;;;;;;5074639;28;20014;-41
2023/04/04 06:02:22;;;;;;;;;;;;;;;;;;5072933;28;20328;-43
2023/04/04 06:04:49;;;;;;;;;;;;;;;;;;5074460;28;19916;-41
2023/04/04 06:07:15;;;;;;;;;;;;;;;;;;5074538;28;20000;-41
2023/04/04 06:09:42;;;;;;;;;;;;;;;;;;5074532;28;19913;-41
2023/04/04 06:12:08;;;;;;;;;;;;;;;;;;5073753;28;20302;-41
2023/04/04 06:14:35;;;;;;;;;;;;;;;;;;5074382;28;19963;-41
2023/04/04 06:17:01;;;;;;;;;;;;;;;;;;5074320;28;19923;-41
2023/04/04 06:19:27;;;;;;;;;;;;;;;;;;5074283;28;20290;-41
2023/04/04 06:21:54;;;;;;;;;;;;;;;;;;5073908;28;20015;-41
2023/04/04 06:24:20;;;;;;;;;;;;;;;;;;5074168;28;20324;-41
2023/04/04 06:26:50;;;;;;;;;;;;;;;;;;5073921;28;19923;-41
2023/04/04 06:29:17;;;;;;;;;;;;;;;;;;5074136;28;19958;-41
2023/04/04 06:31:43;;;;;;;;;;;;;;;;;;5074003;28;20505;-41
2023/04/04 06:34:10;;;;;;;;;;;;;;;;;;5073951;28;19970;-41
2023/04/04 06:36:36;;;;;;;;;;;;;;;;;;5074006;28;19912;-41
2023/04/04 06:39:02;;;;;;;;;;;;;;;;;;5073973;28;19919;-41
2023/04/04 06:41:29;;;;;;;;;;;;;;;;;;5073811;28;20320;-41
2023/04/04 06:43:55;;;;;;;;;;;;;;;;;;5073778;28;19962;-41
2023/04/04 06:46:21;;;;;;;;;;;;;;;;;;5073763;28;19917;-41
2023/04/04 06:48:48;;;;;;;;;;;;;;;;;;5073650;28;19917;-41
2023/04/04 06:51:15;;;;;;;;;;;;;;;;;;5073853;28;20255;-41
2023/04/04 06:53:41;;;;;;;;;;;;;;;;;;5073637;28;19916;-41
2023/04/04 06:56:07;;;;;;;;;;;;;;;;;;5073559;28;19940;-41
2023/04/04 06:58:34;;;;;;;;;;;;;;;;;;5073467;28;19920;-41
2023/04/04 07:01:00;;;;;;;;;;;;;;;;;;5073374;28;19916;-41
2023/04/04 07:03:27;;;;;;;;;;;;;;;;;;5073297;28;19916;-41
2023/04/04 07:05:53;;;;;;;;;;;;;;;;;;5073365;28;19920;-41
2023/04/04 07:08:19;;;;;;;;;;;;;;;;;;5073331;28;19912;-41
2023/04/04 07:10:46;;;;;;;;;;;;;;;;;;5073433;28;19920;-41
2023/04/04 07:13:13;;;;;;;;;;;;;;;;;;5073269;28;20473;-43
2023/04/04 07:15:39;;;;;;;;;;;;;;;;;;5073113;28;19916;-41
2023/04/04 07:18:06;;;;;;;;;;;;;;;;;;5073150;28;19919;-41
2023/04/04 07:20:32;;;;;;;;;;;;;;;;;;5072999;28;20370;-41
2023/04/04 07:22:59;;;;;;;;;;;;;;;;;;5071957;28;19947;-40
2023/04/04 07:25:25;;;;;;;;;;;;;;;;;;5072956;28;19917;-41
2023/04/04 07:27:53;;;;;;;;;;;;;;;;;;5072946;28;19913;-41
2023/04/04 07:30:21;;;;;;;;;;;;;;;;;;5072691;28;19916;-41
2023/04/04 07:32:47;;;;;;;;;;;;;;;;;;5072859;28;19917;-41
2023/04/04 07:35:14;;;;;;;;;;;;;;;;;;5072743;28;19917;-41
2023/04/04 07:37:40;;;;;;;;;;;;;;;;;;5072667;28;19916;-41
2023/04/04 07:40:07;;;;;;;;;;;;;;;;;;5072706;28;20418;-41
2023/04/04 07:42:34;;;;;;;;;;;;;;;;;;5072829;28;20459;-41
2023/04/04 07:45:01;;;;;;;;;;;;;;;;;;5072675;28;20366;-41
2023/04/04 07:47:27;;;;;;;;;;;;;;;;;;5072613;28;19969;-41
2023/04/04 07:49:53;;;;;;;;;;;;;;;;;;5072454;28;19936;-41
2023/04/04 07:52:20;;;;;;;;;;;;;;;;;;5071459;28;19916;-41
2023/04/04 07:54:46;;;;;;;;;;;;;;;;;;5072442;28;19921;-41
2023/04/04 07:57:13;;;;;;;;;;;;;;;;;;5072440;28;19912;-41
2023/04/04 07:59:40;;;;;;;;;;;;;;;;;;5072423;28;19913;-41
2023/04/04 08:02:06;;;;;;;;;;;;;;;;;;5072096;28;20668;-41
2023/04/04 08:04:32;;;;;;;;;;;;;;;;;;5072401;28;19913;-41
2023/04/04 08:06:59;;;;;;;;;;;;;;;;;;5072333;28;19923;-41
2023/04/04 08:09:30;;;;;;;;;;;;;;;;;;5072317;28;19917;-41
2023/04/04 08:11:56;;;;;;;;;;;;;;;;;;5072075;28;20003;-41
2023/04/04 08:14:22;;;;;;;;;;;;;;;;;;5072147;28;20286;-41
2023/04/04 08:16:49;;;;;;;;;;;;;;;;;;5072244;28;19917;-41
2023/04/04 08:19:16;;;;;;;;;;;;;;;;;;5072206;28;19912;-41
2023/04/04 08:21:43;;;;;;;;;;;;;;;;;;5071875;28;19968;-41
2023/04/04 08:24:09;;;;;;;;;;;;;;;;;;5072086;28;19920;-41
2023/04/04 08:26:36;;;;;;;;;;;;;;;;;;5072042;28;20005;-41
2023/04/04 08:29:02;;;;;;;;;;;;;;;;;;5072122;28;19923;-41
2023/04/04 08:31:29;;;;;;;;;;;;;;;;;;5071987;28;20023;-41
2023/04/04 08:33:55;;;;;;;;;;;;;;;;;;5071779;28;19919;-41
2023/04/04 08:36:22;;;;;;;;;;;;;;;;;;5071954;28;19923;-41
2023/04/04 08:38:48;;;;;;;;;;;;;;;;;;5071863;28;20439;-41
2023/04/04 08:41:15;;;;;;;;;;;;;;;;;;5071839;28;19919;-41
2023/04/04 08:43:41;;;;;;;;;;;;;;;;;;5071888;28;19924;-41
2023/04/04 08:46:08;;;;;;;;;;;;;;;;;;5071972;28;19916;-43
2023/04/04 08:48:34;;;;;;;;;;;;;;;;;;5071901;28;19920;-41
2023/04/04 08:51:00;;;;;;;;;;;;;;;;;;5071805;28;20033;-41
2023/04/04 08:53:28;;;;;;;;;;;;;;;;;;5071830;28;19968;-41
2023/04/04 08:55:54;;;;;;;;;;;;;;;;;;5071732;28;19916;-41
2023/04/04 08:58:20;;;;;;;;;;;;;;;;;;5072044;28;19989;-41
2023/04/04 09:00:47;;;;;;;;;;;;;;;;;;5071670;28;19957;-41
2023/04/04 09:03:14;;;;;;;;;;;;;;;;;;5071637;28;19924;-41
2023/04/04 09:05:40;;;;;;;;;;;;;;;;;;5071781;28;19912;-41
2023/04/04 09:08:07;;;;;;;;;;;;;;;;;;5071707;28;19912;-41
2023/04/04 09:10:34;;;;;;;;;;;;;;;;;;5071670;28;19917;-41
2023/04/04 09:13:01;;;;;;;;;;;;;;;;;;5071577;28;19912;-41
2023/04/04 09:15:27;;;;;;;;;;;;;;;;;;5071598;28;19999;-41
2023/04/04 09:17:54;;;;;;;;;;;;;;;;;;5071589;28;19920;-41
2023/04/04 09:20:20;;;;;;;;;;;;;;;;;;5071386;28;20002;-41
2023/04/04 09:22:47;;;;;;;;;;;;;;;;;;5069997;28;20007;-41
2023/04/04 09:25:13;;;;;;;;;;;;;;;;;;5071584;28;19923;-42
2023/04/04 09:27:39;;;;;;;;;;;;;;;;;;5071139;28;19920;-41
2023/04/04 09:30:06;;;;;;;;;;;;;;;;;;5071110;28;20289;-41
2023/04/04 09:32:32;;;;;;;;;;;;;;;;;;5070838;28;20405;-41
2023/04/04 09:34:58;;;;;;;;;;;;;;;;;;5071129;28;19913;-42
2023/04/04 09:37:25;;;;;;;;;;;;;;;;;;5071275;28;20011;-41
2023/04/04 09:39:51;;;;;;;;;;;;;;;;;;5071298;28;19916;-42
2023/04/04 09:42:17;;;;;;;;;;;;;;;;;;5070954;28;19959;-41
2023/04/04 09:44:44;;;;;;;;;;;;;;;;;;5070071;28;19970;-41
2023/04/04 09:47:11;;;;;;;;;;;;;;;;;;5070836;28;20007;-41
2023/04/04 09:49:37;;;;;;;;;;;;;;;;;;5074659;28;19916;-41
2023/04/04 09:52:04;;;;;;;;;;;;;;;;;;5074144;28;20388;-40
2023/04/04 09:54:31;;;;;;;;;;;;;;;;;;5063457;28;20004;-41
2023/04/04 09:56:57;;;;;;;;;;;;;;;;;;5054646;28;20321;-41
2023/04/04 09:59:24;;;;;;;;;;;;;;;;;;5066182;28;19930;-41
2023/04/04 10:01:52;;;;;;;;;;;;;;;;;;5072454;28;19924;-41
2023/04/04 10:04:18;;;;;;;;;;;;;;;;;;5074785;28;19978;-41
2023/04/04 10:06:44;;;;;;;;;;;;;;;;;;5074513;28;19920;-42
2023/04/04 10:09:11;;;;;;;;;;;;;;;;;;5057272;28;19970;-41
2023/04/04 10:11:37;;;;;;;;;;;;;;;;;;5054343;28;19917;-41
2023/04/04 10:14:04;;;;;;;;;;;;;;;;;;5054409;28;20275;-41
2023/04/04 10:16:30;;;;;;;;;;;;;;;;;;5054380;28;19916;-41
2023/04/04 10:18:57;;;;;;;;;;;;;;;;;;5054378;28;19916;-41
2023/04/04 10:21:23;;;;;;;;;;;;;;;;;;5061152;28;19928;-41
2023/04/04 10:23:50;;;;;;;;;;;;;;;;;;5071281;28;20019;-41
2023/04/04 10:26:16;;;;;;;;;;;;;;;;;;5074229;28;19942;-41
2023/04/04 10:28:43;;;;;;;;;;;;;;;;;;5074192;28;20011;-41
2023/04/04 10:31:09;;;;;;;;;;;;;;;;;;5067936;28;19921;-41
2023/04/04 10:33:36;;;;;;;;;;;;;;;;;;5059142;28;19971;-41
2023/04/04 10:36:02;;;;;;;;;;;;;;;;;;5070517;28;20385;-41
2023/04/04 10:38:29;;;;;;;;;;;;;;;;;;5068543;28;20305;-41
2023/04/04 10:40:55;;;;;;;;;;;;;;;;;;5070142;28;19921;-41
2023/04/04 10:43:22;;;;;;;;;;;;;;;;;;5053617;28;20011;-41
2023/04/04 10:45:49;;;;;;;;;;;;;;;;;;5052512;28;19940;-41
2023/04/04 10:48:15;;;;;;;;;;;;;;;;;;5053767;28;19913;-42
2023/04/04 10:50:41;;;;;;;;;;;;;;;;;;5053579;28;20374;-41
2023/04/04 10:53:08;;;;;;;;;;;;;;;;;;5053744;28;19908;-42
2023/04/04 10:55:35;;;;;;;;;;;;;;;;;;5053674;28;19912;-41
2023/04/04 10:58:02;;;;;;;;;;;;;;;;;;5053832;28;20281;-41
2023/04/04 11:00:28;;;;;;;;;;;;;;;;;;5053487;28;19913;-41
2023/04/04 11:02:55;;;;;;;;;;;;;;;;;;5053490;28;19921;-41
2023/04/04 11:05:22;;;;;;;;;;;;;;;;;;5053037;28;19920;-41
2023/04/04 11:07:48;;;;;;;;;;;;;;;;;;5053359;28;19913;-41
2023/04/04 11:10:15;;;;;;;;;;;;;;;;;;5052765;28;19916;-41
2023/04/04 11:12:43;;;;;;;;;;;;;;;;;;5053107;28;19909;-41
2023/04/04 11:15:10;;;;;;;;;;;;;;;;;;5053184;28;20419;-41
2023/04/04 11:17:36;;;;;;;;;;;;;;;;;;5052911;28;20371;-40
2023/04/04 11:20:02;;;;;;;;;;;;;;;;;;5052843;28;19913;-43
2023/04/04 11:22:29;;;;;;;;;;;;;;;;;;5052713;28;20402;-43
2023/04/04 11:24:55;;;;;;;;;;;;;;;;;;5052825;28;20357;-41
2023/04/04 11:27:22;;;;;;;;;;;;;;;;;;5052773;28;20480;-41
2023/04/04 11:29:48;;;;;;;;;;;;;;;;;;5052645;28;19915;-45
2023/04/04 11:32:14;;;;;;;;;;;;;;;;;;5052678;28;19948;-45
2023/04/04 11:34:41;;;;;;;;;;;;;;;;;;5052633;28;19982;-45
2023/04/04 11:37:07;;;;;;;;;;;;;;;;;;5052480;28;20426;-44
2023/04/04 11:39:34;;;;;;;;;;;;;;;;;;5052524;28;19943;-44
2023/04/04 11:42:02;;;;;;;;;;;;;;;;;;5052425;28;19909;-45
2023/04/04 11:44:29;;;;;;;;;;;;;;;;;;5052253;28;19925;-48
2023/04/04 11:46:58;;;;;;;;;;;;;;;;;;5052381;28;19920;-43
2023/04/04 11:49:25;;;;;;;;;;;;;;;;;;5052333;28;19917;-42
2023/04/04 11:51:52;;;;;;;;;;;;;;;;;;5052536;28;20274;-41
2023/04/04 11:54:18;;;;;;;;;;;;;;;;;;5052365;28;19913;-42
2023/04/04 11:56:45;;;;;;;;;;;;;;;;;;5052234;28;19923;-43
2023/04/04 11:59:11;;;;;;;;;;;;;;;;;;5052212;28;19958;-42
2023/04/04 12:01:38;;;;;;;;;;;;;;;;;;5052101;28;20454;-42
2023/04/04 12:04:04;;;;;;;;;;;;;;;;;;5052145;28;19921;-41
2023/04/04 12:06:39;;;;;;;;;;;;;;;;;;5052172;28;19908;-40
2023/04/04 12:09:06;;;;;;;;;;;;;;;;;;5051919;28;19908;-41
2023/04/04 12:11:32;;;;;;;;;;;;;;;;;;5052001;28;20329;-42
2023/04/04 12:13:59;;;;;;;;;;;;;;;;;;5052033;28;19919;-42
2023/04/04 12:16:25;;;;;;;;;;;;;;;;;;5052029;28;19955;-42
2023/04/04 12:18:52;;;;;;;;;;;;;;;;;;5051927;28;20391;-41
2023/04/04 12:21:18;;;;;;;;;;;;;;;;;;5051595;28;19975;-42
2023/04/04 12:23:45;;;;;;;;;;;;;;;;;;5051889;28;20382;-44
2023/04/04 12:26:11;;;;;;;;;;;;;;;;;;5051952;28;19916;-42
2023/04/04 12:28:38;;;;;;;;;;;;;;;;;;5052101;28;19908;-44
2023/04/04 12:31:05;;;;;;;;;;;;;;;;;;5051670;28;19912;-42
2023/04/04 12:33:35;;;;;;;;;;;;;;;;;;5051868;28;19908;-42
2023/04/04 12:36:05;;;;;;;;;;;;;;;;;;5051762;28;20355;-42
2023/04/04 12:38:31;;;;;;;;;;;;;;;;;;5051646;28;20446;-43
2023/04/04 12:40:58;;;;;;;;;;;;;;;;;;5051625;28;20409;-42
2023/04/04 12:43:24;;;;;;;;;;;;;;;;;;5051600;28;19925;-43
2023/04/04 12:45:51;;;;;;;;;;;;;;;;;;5051715;28;19912;-42
2023/04/04 12:48:17;;;;;;;;;;;;;;;;;;5051598;28;19909;-42
2023/04/04 12:50:43;;;;;;;;;;;;;;;;;;5051437;28;19913;-41
2023/04/04 12:53:10;;;;;;;;;;;;;;;;;;5051552;28;19958;-43
2023/04/04 12:55:36;;;;;;;;;;;;;;;;;;5051755;28;20286;-42
2023/04/04 12:58:03;;;;;;;;;;;;;;;;;;5051544;28;19912;-43
2023/04/04 13:00:29;;;;;;;;;;;;;;;;;;5051475;28;19915;-41
2023/04/04 13:02:55;;;;;;;;;;;;;;;;;;5051334;28;20042;-43
2023/04/04 13:05:22;;;;;;;;;;;;;;;;;;5051455;28;19912;-42
2023/04/04 13:07:48;;;;;;;;;;;;;;;;;;5051425;28;20314;-42
2023/04/04 13:10:16;;;;;;;;;;;;;;;;;;5051289;28;19917;-42
2023/04/04 13:12:42;;;;;;;;;;;;;;;;;;5051336;28;20339;-37
2023/04/04 13:15:10;;;;;;;;;;;;;;;;;;5051337;28;20028;-37
2023/04/04 13:17:36;;;;;;;;;;;;;;;;;;5051273;28;20365;-37
2023/04/04 13:20:03;;;;;;;;;;;;;;;;;;5051340;28;19915;-37
2023/04/04 13:22:29;;;;;;;;;;;;;;;;;;5054190;28;20336;-37
2023/04/04 13:24:56;;;;;;;;;;;;;;;;;;5055154;28;19913;-37
2023/04/04 13:27:27;;;;;;;;;;;;;;;;;;5055031;28;19950;-37
2023/04/04 13:29:53;;;;;;;;;;;;;;;;;;5054974;28;20384;-37
2023/04/04 13:32:20;;;;;;;;;;;;;;;;;;5055047;28;19908;-37
2023/04/04 13:34:46;;;;;;;;;;;;;;;;;;5054977;28;20437;-37
2023/04/04 13:37:12;;;;;;;;;;;;;;;;;;5054917;28;19909;-37
2023/04/04 13:39:39;;;;;;;;;;;;;;;;;;5054762;28;19908;-37
2023/04/04 13:42:05;;;;;;;;;;;;;;;;;;5054949;28;19962;-37
2023/04/04 13:44:32;;;;;;;;;;;;;;;;;;5054799;28;19921;-37
2023/04/04 13:46:58;;;;;;;;;;;;;;;;;;5054708;28;19909;-37
2023/04/04 13:49:24;;;;;;;;;;;;;;;;;;5054786;28;20040;-38
2023/04/04 13:51:51;;;;;;;;;;;;;;;;;;5054674;28;19916;-38
2023/04/04 13:54:17;;;;;;;;;;;;;;;;;;5054610;28;19978;-37
2023/04/04 13:56:44;;;;;;;;;;;;;;;;;;5054557;28;19913;-38
2023/04/04 13:59:10;;;;;;;;;;;;;;;;;;5054561;28;19915;-37
2023/04/04 14:01:36;;;;;;;;;;;;;;;;;;5054444;28;20305;-37
2023/04/04 14:04:03;;;;;;;;;;;;;;;;;;5054360;28;19921;-38
2023/04/04 14:06:30;;;;;;;;;;;;;;;;;;5054392;28;19909;-38
2023/04/04 14:08:57;;;;;;;;;;;;;;;;;;5054244;28;19920;-38
2023/04/04 14:11:24;;;;;;;;;;;;;;;;;;5054238;28;19955;-38
2023/04/04 14:13:51;;;;;;;;;;;;;;;;;;5054289;28;19909;-38
2023/04/04 14:16:17;;;;;;;;;;;;;;;;;;5054122;28;19963;-37
2023/04/04 14:18:43;;;;;;;;;;;;;;;;;;5054168;28;19961;-37
2023/04/04 14:21:10;;;;;;;;;;;;;;;;;;5053802;28;19916;-38
2023/04/04 14:23:37;;;;;;;;;;;;;;;;;;5054035;28;20000;-38
2023/04/04 14:26:04;;;;;;;;;;;;;;;;;;5054031;28;19913;-37
2023/04/04 14:28:30;;;;;;;;;;;;;;;;;;5053891;28;19919;-37
2023/04/04 14:30:57;;;;;;;;;;;;;;;;;;5053770;28;19913;-37
2023/04/04 14:33:23;;;;;;;;;;;;;;;;;;5060643;28;20435;-37
2023/04/04 14:35:49;;;;;;;;;;;;;;;;;;5073479;28;19913;-37
2023/04/04 14:38:16;;;;;;;;;;;;;;;;;;5073660;28;19909;-37
2023/04/04 14:40:42;;;;;;;;;;;;;;;;;;5073266;28;20002;-37
2023/04/04 14:43:09;;;;;;;;;;;;;;;;;;5072006;28;19920;-37
2023/04/04 14:45:35;;;;;;;;;;;;;;;;;;5073386;28;19955;-37
2023/04/04 14:48:01;;;;;;;;;;;;;;;;;;5073720;28;20343;-37
2023/04/04 14:50:28;;;;;;;;;;;;;;;;;;5059517;28;19912;-37
2023/04/04 14:52:55;;;;;;;;;;;;;;;;;;5073339;28;19912;-37
2023/04/04 14:55:21;;;;;;;;;;;;;;;;;;5073033;28;19982;-37
2023/04/04 14:57:48;;;;;;;;;;;;;;;;;;5073332;28;19912;-38
2023/04/04 15:00:19;;;;;;;;;;;;;;;;;;5072618;28;19912;-37
2023/04/04 15:02:46;;;;;;;;;;;;;;;;;;5072983;28;19916;-37
2023/04/04 15:05:12;;;;;;;;;;;;;;;;;;5072844;28;20278;-37
2023/04/04 15:07:39;;;;;;;;;;;;;;;;;;5072927;28;19908;-37
2023/04/04 15:10:05;;;;;;;;;;;;;;;;;;5072756;28;19916;-37
2023/04/04 15:12:31;;;;;;;;;;;;;;;;;;5072905;28;20020;-37
2023/04/04 15:14:58;;;;;;;;;;;;;;;;;;5072611;28;19919;-37
2023/04/04 15:17:24;;;;;;;;;;;;;;;;;;5072780;28;19912;-37
2023/04/04 15:19:51;;;;;;;;;;;;;;;;;;5072450;28;19912;-37
2023/04/04 15:22:17;;;;;;;;;;;;;;;;;;5072422;28;19925;-37
2023/04/04 15:24:44;;;;;;;;;;;;;;;;;;5072541;28;20003;-37
2023/04/04 15:27:10;;;;;;;;;;;;;;;;;;5072453;28;19912;-37
2023/04/04 15:29:36;;;;;;;;;;;;;;;;;;5072567;28;19916;-39
2023/04/04 15:32:03;;;;;;;;;;;;;;;;;;5072489;28;20431;-38
2023/04/04 15:34:29;;;;;;;;;;;;;;;;;;5072474;28;19956;-39
2023/04/04 15:36:58;;;;;;;;;;;;;;;;;;5072703;28;19909;-39
2023/04/04 15:39:24;;;;;;;;;;;;;;;;;;5071537;28;19978;-38
2023/04/04 15:41:51;;;;;;;;;;;;;;;;;;5071813;28;19912;-39
2023/04/04 15:44:17;;;;;;;;;;;;;;;;;;5066410;28;19976;-38
2023/04/04 15:46:44;;;;;;;;;;;;;;;;;;5052064;28;19920;-39
2023/04/04 15:49:10;;;;;;;;;;;;;;;;;;5063021;28;19919;-39
2023/04/04 15:51:38;;;;;;;;;;;;;;;;;;5054251;28;19912;-39
2023/04/04 15:54:04;;;;;;;;;;;;;;;;;;5072087;28;20045;-39
2023/04/04 15:56:31;;;;;;;;;;;;;;;;;;5071799;28;19909;-39
2023/04/04 15:58:57;;;;;;;;;;;;;;;;;;5061494;28;19917;-39
2023/04/04 16:01:23;;;;;;;;;;;;;;;;;;5067127;28;19909;-39
2023/04/04 16:03:50;;;;;;;;;;;;;;;;;;5070493;28;20014;-40
2023/04/04 16:06:16;;;;;;;;;;;;;;;;;;5060114;28;19912;-39
2023/04/04 16:08:43;;;;;;;;;;;;;;;;;;5058814;28;19920;-39
2023/04/04 16:11:09;;;;;;;;;;;;;;;;;;5069560;28;19919;-38
2023/04/04 16:13:35;;;;;;;;;;;;;;;;;;5059822;28;19913;-41
2023/04/04 16:16:02;;;;;;;;;;;;;;;;;;5060981;28;19954;-40
2023/04/04 16:18:28;;;;;;;;;;;;;;;;;;5062537;28;19912;-44
2023/04/04 16:20:55;;;;;;;;;;;;;;;;;;5060667;28;19999;-42
2023/04/04 16:23:21;;;;;;;;;;;;;;;;;;5061170;28;19916;-41
2023/04/04 16:25:48;;;;;;;;;;;;;;;;;;5062400;28;19923;-43
2023/04/04 16:28:14;;;;;;;;;;;;;;;;;;5060654;28;19913;-41
2023/04/04 16:30:40;;;;;;;;;;;;;;;;;;5061223;28;19920;-41
2023/04/04 16:33:07;;;;;;;;;;;;;;;;;;5062409;28;19909;-42
2023/04/04 16:35:33;;;;;;;;;;;;;;;;;;5060471;28;19962;-42
2023/04/04 16:38:00;;;;;;;;;;;;;;;;;;5061216;28;19920;-41
2023/04/04 16:40:26;;;;;;;;;;;;;;;;;;5062105;28;20259;-43